createdAt,value
2018-04-02T00:00:57.650Z,51.00
2018-04-02T00:02:02.781Z,48.50
2018-04-02T00:03:08.031Z,52.00
2018-04-02T00:04:12.951Z,43.50
2018-04-02T00:05:17.821Z,48.00
2018-04-02T00:06:23.023Z,52.50
2018-04-02T00:07:28.106Z,38.00
2018-04-02T00:08:32.847Z,56.50
2018-04-02T00:09:38.667Z,56.00
2018-04-02T00:10:44.458Z,47.00
2018-04-02T00:11:49.868Z,45.50
2018-04-02T00:12:54.707Z,42.00
2018-04-02T00:13:59.775Z,52.00
2018-04-02T00:15:06.239Z,48.00
2018-04-02T00:16:11.769Z,54.50
2018-04-02T00:17:17.449Z,59.00
2018-04-02T00:18:22.385Z,49.00
2018-04-02T00:19:27.250Z,57.50
2018-04-02T00:20:33.526Z,63.00
2018-04-02T00:21:38.698Z,60.00
2018-04-02T00:22:44.336Z,64.00
2018-04-02T00:23:49.569Z,61.50
2018-04-02T00:24:54.768Z,63.50
2018-04-02T00:26:00.024Z,60.00
2018-04-02T00:27:05.417Z,60.00
2018-04-02T00:28:10.652Z,66.50
2018-04-02T00:29:15.770Z,66.00
2018-04-02T00:30:21.176Z,65.50
2018-04-02T00:31:26.209Z,55.00
2018-04-02T00:32:31.375Z,52.00
2018-04-02T00:33:37.122Z,63.50
2018-04-02T00:34:43.091Z,57.50
2018-04-02T00:35:48.648Z,71.00
2018-04-02T00:36:53.971Z,58.50
2018-04-02T00:37:59.307Z,66.00
2018-04-02T00:39:04.294Z,68.00
2018-04-02T00:40:09.397Z,69.00
2018-04-02T00:41:14.389Z,67.00
2018-04-02T00:42:19.789Z,67.00
2018-04-02T00:43:24.565Z,69.50
2018-04-02T00:44:29.726Z,72.00
2018-04-02T00:45:34.879Z,75.50
2018-04-02T00:46:39.894Z,71.00
2018-04-02T00:47:44.953Z,77.00
2018-04-02T00:48:50.530Z,68.00
2018-04-02T00:49:55.675Z,70.50
2018-04-02T00:51:00.831Z,67.00
2018-04-02T00:52:06.329Z,76.00
2018-04-02T00:53:11.342Z,81.00
2018-04-02T00:54:16.557Z,67.50
2018-04-02T00:55:22.410Z,70.00
2018-04-02T00:56:28.269Z,78.50
2018-04-02T00:57:33.940Z,81.00
2018-04-02T00:58:39.172Z,69.50
2018-04-02T00:59:45.127Z,73.00
2018-04-02T01:00:50.764Z,74.00
2018-04-02T01:01:57.390Z,69.00
2018-04-02T01:03:02.788Z,77.00
2018-04-02T01:04:08.500Z,65.00
2018-04-02T01:05:13.848Z,80.00
2018-04-02T01:06:18.978Z,73.00
2018-04-02T01:07:23.910Z,70.50
2018-04-02T01:08:29.698Z,71.50
2018-04-02T01:09:35.443Z,79.50
2018-04-02T01:10:40.595Z,68.50
2018-04-02T01:11:46.556Z,65.00
2018-04-02T01:12:52.028Z,76.00
2018-04-02T01:13:57.114Z,72.50
2018-04-02T01:15:04.295Z,66.00
2018-04-02T01:16:09.635Z,72.00
2018-04-02T01:17:14.951Z,66.00
2018-04-02T01:18:20.088Z,71.00
2018-04-02T01:19:25.169Z,60.00
2018-04-02T01:20:30.627Z,60.50
2018-04-02T01:21:35.602Z,51.50
2018-04-02T01:22:40.712Z,60.00
2018-04-02T01:23:45.790Z,62.00
2018-04-02T01:24:50.964Z,61.00
2018-04-02T01:25:56.720Z,63.00
2018-04-02T01:27:02.288Z,64.00
2018-04-02T01:28:07.375Z,60.50
2018-04-02T01:29:12.673Z,63.00
2018-04-02T01:30:18.232Z,65.50
2018-04-02T01:31:24.625Z,72.50
2018-04-02T01:32:29.598Z,58.00
2018-04-02T01:33:35.107Z,69.00
2018-04-02T01:34:40.536Z,67.00
2018-04-02T01:35:45.835Z,69.00
2018-04-02T01:36:51.094Z,72.50
2018-04-02T01:37:56.272Z,60.50
2018-04-02T01:39:01.283Z,63.50
2018-04-02T01:40:07.047Z,63.00
2018-04-02T01:41:12.354Z,67.00
2018-04-02T01:42:17.675Z,61.50
2018-04-02T01:43:22.884Z,59.00
2018-04-02T01:44:28.051Z,63.00
2018-04-02T01:45:34.057Z,68.50
2018-04-02T01:46:39.173Z,63.50
2018-04-02T01:47:44.382Z,74.00
2018-04-02T01:48:50.296Z,66.00
2018-04-02T01:49:56.127Z,66.00
2018-04-02T01:51:01.875Z,68.50
2018-04-02T01:52:06.983Z,61.00
2018-04-02T01:53:11.945Z,66.50
2018-04-02T01:54:17.192Z,70.50
2018-04-02T01:55:22.485Z,68.00
2018-04-02T01:56:27.421Z,67.50
2018-04-02T01:57:32.638Z,67.00
2018-04-02T01:58:38.262Z,68.00
2018-04-02T01:59:43.185Z,69.50
2018-04-02T02:00:48.558Z,74.50
2018-04-02T02:01:54.616Z,76.00
2018-04-02T02:02:59.866Z,76.50
2018-04-02T02:04:04.718Z,73.00
2018-04-02T02:05:10.275Z,75.50
2018-04-02T02:06:15.331Z,71.50
2018-04-02T02:07:20.320Z,75.50
2018-04-02T02:08:25.686Z,72.00
2018-04-02T02:09:30.467Z,78.00
2018-04-02T02:10:35.386Z,67.50
2018-04-02T02:11:39.989Z,72.00
2018-04-02T02:12:45.392Z,70.00
2018-04-02T02:13:51.558Z,77.50
2018-04-02T02:14:57.337Z,64.00
2018-04-02T02:16:02.560Z,66.00
2018-04-02T02:17:07.328Z,69.00
2018-04-02T02:18:12.398Z,61.50
2018-04-02T02:19:17.519Z,71.50
2018-04-02T02:20:22.591Z,59.00
2018-04-02T02:21:27.250Z,71.50
2018-04-02T02:22:32.951Z,62.50
2018-04-02T02:23:38.125Z,70.00
2018-04-02T02:24:43.437Z,70.50
2018-04-02T02:25:48.663Z,64.00
2018-04-02T02:26:53.466Z,64.00
2018-04-02T02:27:57.965Z,64.50
2018-04-02T02:29:03.018Z,64.00
2018-04-02T02:30:07.801Z,48.00
2018-04-02T02:31:12.686Z,66.00
2018-04-02T02:32:17.706Z,59.50
2018-04-02T02:33:23.032Z,52.00
2018-04-02T02:34:28.962Z,63.00
2018-04-02T02:35:34.455Z,66.00
2018-04-02T02:36:39.977Z,52.50
2018-04-02T02:37:44.732Z,59.50
2018-04-02T02:38:49.791Z,65.50
2018-04-02T02:39:55.947Z,40.50
2018-04-02T02:41:00.402Z,59.00
2018-04-02T02:42:05.265Z,68.50
2018-04-02T02:43:10.266Z,60.50
2018-04-02T02:44:15.039Z,55.00
2018-04-02T02:45:19.973Z,73.00
2018-04-02T02:46:25.068Z,61.50
2018-04-02T02:47:30.430Z,65.50
2018-04-02T02:48:35.477Z,58.50
2018-04-02T02:49:39.890Z,59.50
2018-04-02T02:50:44.718Z,53.00
2018-04-02T02:51:49.112Z,48.50
2018-04-02T02:52:54.476Z,58.50
2018-04-02T02:54:00.617Z,60.00
2018-04-02T02:55:06.157Z,56.00
2018-04-02T02:56:11.159Z,59.50
2018-04-02T02:57:16.019Z,51.50
2018-04-02T02:58:21.183Z,54.50
2018-04-02T02:59:26.312Z,65.00
2018-04-02T03:00:32.199Z,63.00
2018-04-02T03:01:37.468Z,42.00
2018-04-02T03:02:41.994Z,57.00
2018-04-02T03:03:46.943Z,61.00
2018-04-02T03:04:52.655Z,62.50
2018-04-02T03:05:58.123Z,61.00
2018-04-02T03:07:02.574Z,62.50
2018-04-02T03:08:07.641Z,56.00
2018-04-02T03:09:12.727Z,62.00
2018-04-02T03:10:18.050Z,50.50
2018-04-02T03:11:23.084Z,66.00
2018-04-02T03:12:28.148Z,62.50
2018-04-02T03:13:33.518Z,63.50
2018-04-02T03:14:38.079Z,64.50
2018-04-02T03:15:43.072Z,64.00
2018-04-02T03:16:47.664Z,63.00
2018-04-02T03:17:53.390Z,62.00
2018-04-02T03:18:59.234Z,62.50
2018-04-02T03:20:04.153Z,62.00
2018-04-02T03:21:08.866Z,60.50
2018-04-02T03:22:13.208Z,51.50
2018-04-02T03:23:18.126Z,51.50
2018-04-02T03:24:22.901Z,49.50
2018-04-02T03:25:28.398Z,51.50
2018-04-02T03:26:33.593Z,63.50
2018-04-02T03:27:38.398Z,61.00
2018-04-02T03:28:42.865Z,61.00
2018-04-02T03:29:47.845Z,61.50
2018-04-02T03:30:52.672Z,59.50
2018-04-02T03:31:58.259Z,61.00
2018-04-02T03:33:03.097Z,59.50
2018-04-02T03:34:07.942Z,52.00
2018-04-02T03:35:13.290Z,55.00
2018-04-02T03:36:18.104Z,59.50
2018-04-02T03:37:23.663Z,53.00
2018-04-02T03:38:29.083Z,64.00
2018-04-02T03:39:34.488Z,62.50
2018-04-02T03:40:39.862Z,55.00
2018-04-02T03:41:44.546Z,57.50
2018-04-02T03:42:48.894Z,62.00
2018-04-02T03:43:53.252Z,64.00
2018-04-02T03:44:58.244Z,51.50
2018-04-02T03:46:02.871Z,60.00
2018-04-02T03:47:07.973Z,48.50
2018-04-02T03:48:13.187Z,56.00
2018-04-02T03:49:18.185Z,59.50
2018-04-02T03:50:23.114Z,67.50
2018-04-02T03:51:27.929Z,62.00
2018-04-02T03:52:32.266Z,55.50
2018-04-02T03:53:37.206Z,65.00
2018-04-02T03:54:42.192Z,61.00
2018-04-02T03:55:47.850Z,54.50
2018-04-02T03:56:53.028Z,62.00
2018-04-02T03:57:59.207Z,70.00
2018-04-02T03:59:04.598Z,67.00
2018-04-02T04:00:09.642Z,59.50
2018-04-02T04:01:15.456Z,58.50
2018-04-02T04:02:19.820Z,52.50
2018-04-02T04:03:24.485Z,50.00
2018-04-02T04:04:30.000Z,54.50
2018-04-02T04:05:34.949Z,54.00
2018-04-02T04:06:39.372Z,52.00
2018-04-02T04:07:44.053Z,60.50
2018-04-02T04:08:48.795Z,65.00
2018-04-02T04:09:53.891Z,60.50
2018-04-02T04:11:00.808Z,64.00
2018-04-02T04:12:05.201Z,62.50
2018-04-02T04:13:10.102Z,63.50
2018-04-02T04:14:14.705Z,65.00
2018-04-02T04:15:19.263Z,64.00
2018-04-02T04:16:23.606Z,55.50
2018-04-02T04:17:28.934Z,68.50
2018-04-02T04:18:33.572Z,53.00
2018-04-02T04:19:38.806Z,64.00
2018-04-02T04:20:43.467Z,53.00
2018-04-02T04:21:48.025Z,55.50
2018-04-02T04:22:52.784Z,58.00
2018-04-02T04:23:57.809Z,64.00
2018-04-02T04:25:02.560Z,66.00
2018-04-02T04:26:07.239Z,66.00
2018-04-02T04:27:11.834Z,62.00
2018-04-02T04:29:23.326Z,63.00
2018-04-02T04:30:28.576Z,60.00
2018-04-02T04:31:33.551Z,56.00
2018-04-02T04:32:39.578Z,58.00
2018-04-02T04:33:44.630Z,60.00
2018-04-02T04:34:49.753Z,60.00
2018-04-02T04:35:55.563Z,55.00
2018-04-02T04:37:00.112Z,56.50
2018-04-02T04:38:06.624Z,56.00
2018-04-02T04:39:11.268Z,57.00
2018-04-02T04:40:16.861Z,64.00
2018-04-02T04:41:21.638Z,61.50
2018-04-02T04:42:26.257Z,65.50
2018-04-02T04:43:31.379Z,65.00
2018-04-02T04:44:36.461Z,57.50
2018-04-02T04:45:42.186Z,66.00
2018-04-02T04:46:47.464Z,54.00
2018-04-02T04:47:52.503Z,50.00
2018-04-02T04:48:57.749Z,55.50
2018-04-02T04:50:03.787Z,59.00
2018-04-02T04:51:09.273Z,58.00
2018-04-02T04:52:14.000Z,61.00
2018-04-02T04:53:18.929Z,57.00
2018-04-02T04:54:24.196Z,51.00
2018-04-02T04:55:28.538Z,49.50
2018-04-02T04:56:33.388Z,55.50
2018-04-02T04:57:37.874Z,59.50
2018-04-02T04:58:43.365Z,49.00
2018-04-02T04:59:48.442Z,62.00
2018-04-02T05:00:53.574Z,62.50
2018-04-02T05:01:58.972Z,49.50
2018-04-02T05:03:03.921Z,57.50
2018-04-02T05:04:08.852Z,46.50
2018-04-02T05:05:14.132Z,57.50
2018-04-02T05:06:18.869Z,44.50
2018-04-02T05:07:23.642Z,59.00
2018-04-02T05:08:28.051Z,67.00
2018-04-02T05:09:32.685Z,71.50
2018-04-02T05:10:37.254Z,73.00
2018-04-02T05:11:41.850Z,76.00
2018-04-02T05:12:46.485Z,47.00
2018-04-02T05:13:51.978Z,56.50
2018-04-02T05:14:56.408Z,59.00
2018-04-02T05:16:02.558Z,66.50
2018-04-02T05:17:07.008Z,67.00
2018-04-02T05:18:12.839Z,66.00
2018-04-02T05:19:18.004Z,63.50
2018-04-02T05:20:22.389Z,56.50
2018-04-02T05:21:27.074Z,61.50
2018-04-02T05:22:31.832Z,53.50
2018-04-02T05:23:36.244Z,59.50
2018-04-02T05:24:40.871Z,52.00
2018-04-02T05:25:45.864Z,42.00
2018-04-02T05:26:50.657Z,43.50
2018-04-02T05:27:55.224Z,61.50
2018-04-02T05:29:00.771Z,57.00
2018-04-02T05:30:08.367Z,55.50
2018-04-02T05:31:13.624Z,50.50
2018-04-02T05:32:18.336Z,53.50
2018-04-02T05:33:23.526Z,59.50
2018-04-02T05:34:28.371Z,57.00
2018-04-02T05:35:33.432Z,58.00
2018-04-02T05:36:38.510Z,47.00
2018-04-02T05:37:43.634Z,55.00
2018-04-02T05:38:48.804Z,55.50
2018-04-02T05:39:53.910Z,53.50
2018-04-02T05:40:59.151Z,58.00
2018-04-02T05:42:04.660Z,59.50
2018-04-02T05:43:10.554Z,57.50
2018-04-02T05:44:15.487Z,46.00
2018-04-02T05:45:21.328Z,61.50
2018-04-02T05:46:26.887Z,58.50
2018-04-02T05:47:31.272Z,55.50
2018-04-02T05:48:36.148Z,48.50
2018-04-02T05:49:41.908Z,62.50
2018-04-02T05:50:47.001Z,68.50
2018-04-02T05:51:52.332Z,53.00
2018-04-02T05:52:56.830Z,58.50
2018-04-02T05:54:02.874Z,66.50
2018-04-02T05:55:08.823Z,55.00
2018-04-02T05:56:13.890Z,49.50
2018-04-02T05:57:18.414Z,66.00
2018-04-02T05:58:23.917Z,64.00
2018-04-02T05:59:29.045Z,64.00
2018-04-02T06:00:34.748Z,64.00
2018-04-02T06:01:40.018Z,59.00
2018-04-02T06:02:44.628Z,56.00
2018-04-02T06:03:49.792Z,62.50
2018-04-02T06:04:55.105Z,56.50
2018-04-02T06:05:59.661Z,63.50
2018-04-02T06:07:04.337Z,64.00
2018-04-02T06:08:11.673Z,69.50
2018-04-02T06:09:16.935Z,60.00
2018-04-02T06:10:22.101Z,62.50
2018-04-02T06:11:27.121Z,66.50
2018-04-02T06:12:31.648Z,60.50
2018-04-02T06:13:37.249Z,50.50
2018-04-02T06:14:42.577Z,66.50
2018-04-02T06:15:48.005Z,67.50
2018-04-02T06:16:52.974Z,64.50
2018-04-02T06:17:57.965Z,64.00
2018-04-02T06:19:03.648Z,63.50
2018-04-02T06:20:10.469Z,52.00
2018-04-02T06:21:16.122Z,65.50
2018-04-02T06:22:21.375Z,53.00
2018-04-02T06:23:26.675Z,60.00
2018-04-02T06:24:31.341Z,69.50
2018-04-02T06:25:36.434Z,60.00
2018-04-02T06:26:41.467Z,70.50
2018-04-02T06:27:46.833Z,62.00
2018-04-02T06:28:51.879Z,67.00
2018-04-02T06:29:57.303Z,64.00
2018-04-02T06:31:02.549Z,64.00
2018-04-02T06:32:07.784Z,64.00
2018-04-02T06:33:14.292Z,56.00
2018-04-02T06:34:19.924Z,68.00
2018-04-02T06:35:25.510Z,69.50
2018-04-02T06:36:30.291Z,67.00
2018-04-02T06:37:35.248Z,57.50
2018-04-02T06:38:40.777Z,54.00
2018-04-02T06:39:45.979Z,64.00
2018-04-02T06:40:50.914Z,69.50
2018-04-02T06:41:55.494Z,64.00
2018-04-02T06:43:01.675Z,58.50
2018-04-02T06:44:08.285Z,69.50
2018-04-02T06:45:15.896Z,69.50
2018-04-02T06:46:20.991Z,58.00
2018-04-02T06:47:25.950Z,67.00
2018-04-02T06:48:31.319Z,66.00
2018-04-02T06:49:36.393Z,64.00
2018-04-02T06:50:42.194Z,63.00
2018-04-02T06:51:47.574Z,62.00
2018-04-02T06:52:53.196Z,68.00
2018-04-02T06:53:58.200Z,65.50
2018-04-02T06:55:04.388Z,61.00
2018-04-02T06:56:10.401Z,64.50
2018-04-02T06:57:15.871Z,70.50
2018-04-02T06:58:21.139Z,66.50
2018-04-02T06:59:26.235Z,60.00
2018-04-02T07:00:31.800Z,78.50
2018-04-02T07:01:36.956Z,72.00
2018-04-02T07:02:42.086Z,72.50
2018-04-02T07:03:47.567Z,71.50
2018-04-02T07:04:52.782Z,64.50
2018-04-02T07:05:57.923Z,57.50
2018-04-02T07:07:03.196Z,65.50
2018-04-02T07:08:09.014Z,70.00
2018-04-02T07:09:15.206Z,59.50
2018-04-02T07:10:20.337Z,73.00
2018-04-02T07:11:25.385Z,72.00
2018-04-02T07:12:30.268Z,72.00
2018-04-02T07:13:35.485Z,70.00
2018-04-02T07:14:40.833Z,69.50
2018-04-02T07:15:46.528Z,68.50
2018-04-02T07:16:51.952Z,58.00
2018-04-02T07:17:57.209Z,64.50
2018-04-02T07:19:02.472Z,69.50
2018-04-02T07:20:07.945Z,67.50
2018-04-02T07:21:14.021Z,61.00
2018-04-02T07:22:19.567Z,45.50
2018-04-02T07:23:24.894Z,68.00
2018-04-02T07:24:30.085Z,74.50
2018-04-02T07:25:35.337Z,70.50
2018-04-02T07:26:40.428Z,64.00
2018-04-02T07:27:45.603Z,59.00
2018-04-02T07:28:50.937Z,66.00
2018-04-02T07:29:56.230Z,64.00
2018-04-02T07:31:01.582Z,74.00
2018-04-02T07:32:06.568Z,62.00
2018-04-02T07:33:11.678Z,66.50
2018-04-02T07:34:17.221Z,59.00
2018-04-02T07:35:22.191Z,65.50
2018-04-02T07:36:27.051Z,50.50
2018-04-02T07:37:32.090Z,66.00
2018-04-02T07:38:37.719Z,33.50
2018-04-02T07:39:42.739Z,59.50
2018-04-02T07:40:48.267Z,33.50
2018-04-02T07:41:53.334Z,41.00
2018-04-02T07:42:58.404Z,57.00
2018-04-02T07:44:03.459Z,54.00
2018-04-02T07:45:08.832Z,50.00
2018-04-02T07:46:13.989Z,58.00
2018-04-02T07:47:19.613Z,62.50
2018-04-02T07:48:25.801Z,61.00
2018-04-02T07:49:31.059Z,60.00
2018-04-02T07:50:36.242Z,61.00
2018-04-02T07:51:41.373Z,63.00
2018-04-02T07:52:46.550Z,67.50
2018-04-02T07:55:08.489Z,58.00
2018-04-02T07:56:13.899Z,47.50
2018-04-02T07:57:20.002Z,65.50
2018-04-02T07:58:25.789Z,64.00
2018-04-02T07:59:31.088Z,62.00
2018-04-02T08:00:37.172Z,69.00
2018-04-02T08:01:42.532Z,42.00
2018-04-02T08:02:48.286Z,37.00
2018-04-02T08:03:54.353Z,25.50
2018-04-02T08:05:00.080Z,27.50
2018-04-02T08:06:05.162Z,34.50
2018-04-02T08:07:10.637Z,25.00
2018-04-02T08:08:16.864Z,24.50
2018-04-02T08:09:22.669Z,43.50
2018-04-02T08:10:27.979Z,41.00
2018-04-02T08:11:33.339Z,33.00
2018-04-02T08:12:38.305Z,43.50
2018-04-02T08:13:43.475Z,34.50
2018-04-02T08:14:48.360Z,43.50
2018-04-02T08:15:53.428Z,41.50
2018-04-02T08:16:58.218Z,49.50
2018-04-02T08:18:03.180Z,38.50
2018-04-02T08:19:08.186Z,39.50
2018-04-02T08:20:13.210Z,38.00
2018-04-02T08:21:18.191Z,46.00
2018-04-02T08:22:23.477Z,44.50
2018-04-02T08:23:28.413Z,36.00
2018-04-02T08:24:33.210Z,38.00
2018-04-02T08:25:38.443Z,30.50
2018-04-02T08:26:43.040Z,20.50
2018-04-02T08:27:48.312Z,35.50
2018-04-02T08:28:53.731Z,38.50
2018-04-02T08:29:58.444Z,40.50
2018-04-02T08:31:03.788Z,42.00
2018-04-02T08:32:09.368Z,27.00
2018-04-02T08:33:14.228Z,32.50
2018-04-02T08:34:19.879Z,43.50
2018-04-02T08:35:25.566Z,28.00
2018-04-02T08:36:30.352Z,31.50
2018-04-02T08:37:35.463Z,34.50
2018-04-02T08:38:40.493Z,42.50
2018-04-02T08:39:45.920Z,66.00
2018-04-02T08:40:51.118Z,30.00
2018-04-02T08:41:56.441Z,32.50
2018-04-02T08:43:01.729Z,23.50
2018-04-02T08:44:06.550Z,27.00
2018-04-02T08:45:13.037Z,43.50
2018-04-02T08:46:18.167Z,24.00
2018-04-02T08:47:23.569Z,23.00
2018-04-02T08:48:29.878Z,24.50
2018-04-02T08:49:34.763Z,31.00
2018-04-02T08:50:39.421Z,33.00
2018-04-02T08:51:44.269Z,21.50
2018-04-02T08:52:49.369Z,19.50
2018-04-02T08:53:54.193Z,24.50
2018-04-02T08:54:59.076Z,20.50
2018-04-02T08:56:04.169Z,26.00
2018-04-02T08:57:09.114Z,25.00
2018-04-02T08:58:14.044Z,28.00
2018-04-02T08:59:19.508Z,25.50
2018-04-02T09:00:24.804Z,22.50
2018-04-02T09:01:29.638Z,19.50
2018-04-02T09:02:35.179Z,18.50
2018-04-02T09:03:40.051Z,17.00
2018-04-02T09:04:44.779Z,26.00
2018-04-02T09:05:49.549Z,28.00
2018-04-02T09:06:54.475Z,30.00
2018-04-02T09:07:59.706Z,30.00
2018-04-02T09:09:05.230Z,29.00
2018-04-02T09:10:09.964Z,29.50
2018-04-02T09:11:14.646Z,18.50
2018-04-02T09:12:19.439Z,16.00
2018-04-02T09:13:25.220Z,16.00
2018-04-02T09:14:30.494Z,16.50
2018-04-02T09:15:35.493Z,30.00
2018-04-02T09:16:40.210Z,29.50
2018-04-02T09:17:45.507Z,32.50
2018-04-02T09:18:50.795Z,32.00
2018-04-02T09:19:55.998Z,28.00
2018-04-02T09:21:00.772Z,24.00
2018-04-02T09:22:05.537Z,18.00
2018-04-02T09:23:10.654Z,17.00
2018-04-02T09:24:15.525Z,18.00
2018-04-02T09:25:20.575Z,18.00
2018-04-02T09:26:25.748Z,22.00
2018-04-02T09:27:31.217Z,24.50
2018-04-02T09:28:35.866Z,21.00
2018-04-02T09:29:40.706Z,20.50
2018-04-02T09:30:45.902Z,32.50
2018-04-02T09:31:50.749Z,21.50
2018-04-02T09:32:56.360Z,21.50
2018-04-02T09:34:01.125Z,18.50
2018-04-02T09:35:05.991Z,19.50
2018-04-02T09:36:10.757Z,18.00
2018-04-02T09:37:15.779Z,18.50
2018-04-02T09:38:20.682Z,17.00
2018-04-02T09:39:26.067Z,13.50
2018-04-02T09:40:31.132Z,14.00
2018-04-02T09:41:35.931Z,30.00
2018-04-02T09:42:40.629Z,26.00
2018-04-02T09:43:45.305Z,30.50
2018-04-02T09:44:50.101Z,24.50
2018-04-02T09:45:55.714Z,28.50
2018-04-02T09:47:01.079Z,32.50
2018-04-02T09:48:06.051Z,23.50
2018-04-02T09:49:10.918Z,22.50
2018-04-02T09:50:16.225Z,25.50
2018-04-02T09:51:21.079Z,19.00
2018-04-02T09:52:25.892Z,20.50
2018-04-02T09:53:30.866Z,24.50
2018-04-02T09:54:36.915Z,24.00
2018-04-02T09:55:41.946Z,22.50
2018-04-02T09:56:47.586Z,20.00
2018-04-02T09:57:52.280Z,26.00
2018-04-02T09:58:57.007Z,32.00
2018-04-02T10:00:01.760Z,29.50
2018-04-02T10:01:11.065Z,30.50
2018-04-02T10:02:16.689Z,20.00
2018-04-02T10:03:25.860Z,27.00
2018-04-02T10:04:31.871Z,34.50
2018-04-02T10:05:38.005Z,30.00
2018-04-02T10:06:42.822Z,31.00
2018-04-02T10:07:47.648Z,24.00
2018-04-02T10:08:52.844Z,19.50
2018-04-02T10:09:57.602Z,34.50
2018-04-02T10:11:02.293Z,19.00
2018-04-02T10:12:07.087Z,26.00
2018-04-02T10:13:12.226Z,37.50
2018-04-02T10:14:17.309Z,23.50
2018-04-02T10:15:23.009Z,31.00
2018-04-02T10:16:27.904Z,30.50
2018-04-02T10:17:32.943Z,26.50
2018-04-02T10:18:37.752Z,61.00
2018-04-02T10:19:43.607Z,38.50
2018-04-02T10:20:48.699Z,41.00
2018-04-02T10:21:54.156Z,17.50
2018-04-02T10:22:59.091Z,42.50
2018-04-02T10:24:03.968Z,28.50
2018-04-02T10:25:08.692Z,32.50
2018-04-02T10:26:13.434Z,36.50
2018-04-02T10:27:18.093Z,29.50
2018-04-02T10:28:23.169Z,27.50
2018-04-02T10:29:27.885Z,34.00
2018-04-02T10:30:32.804Z,49.50
2018-04-02T10:31:38.117Z,55.50
2018-04-02T10:32:43.216Z,50.50
2018-04-02T10:33:48.132Z,35.50
2018-04-02T10:34:53.270Z,42.00
2018-04-02T10:35:58.117Z,20.50
2018-04-02T10:37:02.884Z,25.50
2018-04-02T10:38:07.845Z,43.00
2018-04-02T10:39:12.766Z,60.50
2018-04-02T10:40:17.557Z,38.50
2018-04-02T10:41:22.419Z,40.50
2018-04-02T10:42:27.842Z,32.50
2018-04-02T10:43:33.510Z,32.00
2018-04-02T10:44:38.851Z,40.50
2018-04-02T10:45:44.118Z,43.00
2018-04-02T10:46:49.111Z,43.50
2018-04-02T10:47:54.269Z,47.00
2018-04-02T10:48:59.645Z,44.00
2018-04-02T10:50:04.594Z,59.50
2018-04-02T10:51:09.532Z,52.50
2018-04-02T10:52:14.768Z,33.50
2018-04-02T10:53:19.543Z,60.50
2018-04-02T10:54:24.459Z,36.50
2018-04-02T10:55:29.251Z,47.50
2018-04-02T10:56:34.803Z,42.50
2018-04-02T10:57:40.388Z,37.50
2018-04-02T10:58:45.539Z,32.00
2018-04-02T10:59:50.454Z,17.50
2018-04-02T11:00:55.318Z,39.00
2018-04-02T11:02:00.612Z,39.50
2018-04-02T11:03:05.345Z,44.00
2018-04-02T11:04:09.949Z,83.00
2018-04-02T11:05:14.741Z,70.00
2018-04-02T11:06:19.759Z,54.00
2018-04-02T11:07:24.647Z,60.00
2018-04-02T11:08:29.458Z,49.50
2018-04-02T11:09:34.739Z,45.50
2018-04-02T11:10:39.596Z,50.50
2018-04-02T11:11:44.733Z,40.00
2018-04-02T11:12:49.959Z,43.50
2018-04-02T11:13:54.821Z,58.00
2018-04-02T11:14:59.568Z,52.50
2018-04-02T11:16:05.258Z,36.50
2018-04-02T11:17:09.922Z,37.00
2018-04-02T11:18:14.886Z,45.00
2018-04-02T11:19:19.750Z,50.00
2018-04-02T11:20:24.507Z,39.00
2018-04-02T11:21:29.371Z,43.50
2018-04-02T11:22:34.350Z,45.50
2018-04-02T11:23:40.713Z,62.50
2018-04-02T11:24:46.175Z,78.00
2018-04-02T11:25:50.988Z,59.50
2018-04-02T11:26:55.759Z,63.00
2018-04-02T11:28:00.721Z,41.00
2018-04-02T11:29:05.842Z,45.50
2018-04-02T11:31:20.710Z,40.00
2018-04-02T11:32:26.012Z,42.50
2018-04-02T11:33:30.990Z,32.50
2018-04-02T11:34:35.737Z,39.50
2018-04-02T11:35:40.428Z,45.50
2018-04-02T11:36:45.060Z,52.50
2018-04-02T11:37:49.725Z,25.00
2018-04-02T11:38:54.473Z,58.50
2018-04-02T11:39:59.212Z,57.00
2018-04-02T11:41:04.003Z,49.50
2018-04-02T11:42:08.572Z,27.00
2018-04-02T11:43:13.641Z,54.00
2018-04-02T11:44:18.384Z,55.00
2018-04-02T11:45:23.162Z,49.00
2018-04-02T11:46:27.929Z,44.50
2018-04-02T11:47:32.572Z,40.00
2018-04-02T11:48:37.391Z,49.00
2018-04-02T11:49:42.353Z,28.00
2018-04-02T11:50:47.208Z,39.50
2018-04-02T11:51:52.315Z,43.50
2018-04-02T11:52:57.474Z,48.50
2018-04-02T11:54:02.482Z,31.50
2018-04-02T11:55:07.467Z,49.00
2018-04-02T11:56:12.546Z,71.50
2018-04-02T11:57:17.276Z,42.00
2018-04-02T11:58:22.416Z,57.50
2018-04-02T11:59:27.154Z,31.00
2018-04-02T12:00:32.587Z,42.50
2018-04-02T12:01:37.924Z,64.50
2018-04-02T12:02:44.188Z,55.00
2018-04-02T12:03:50.253Z,39.00
2018-04-02T12:04:55.429Z,30.50
2018-04-02T12:06:00.162Z,45.00
2018-04-02T12:07:04.993Z,68.50
2018-04-02T12:08:10.673Z,56.00
2018-04-02T12:09:15.847Z,39.00
2018-04-02T12:10:20.944Z,42.50
2018-04-02T12:11:25.916Z,79.00
2018-04-02T12:12:30.733Z,64.00
2018-04-02T12:13:36.090Z,35.00
2018-04-02T12:14:41.152Z,34.00
2018-04-02T12:15:46.028Z,37.50
2018-04-02T12:16:51.373Z,61.00
2018-04-02T12:17:56.231Z,60.00
2018-04-02T12:19:00.961Z,51.50
2018-04-02T12:20:05.935Z,43.50
2018-04-02T12:21:10.984Z,46.00
2018-04-02T12:22:15.598Z,34.00
2018-04-02T12:23:20.745Z,65.00
2018-04-02T12:24:25.591Z,51.00
2018-04-02T12:25:30.281Z,42.00
2018-04-02T12:26:35.038Z,82.00
2018-04-02T12:27:40.422Z,45.00
2018-04-02T12:28:46.003Z,56.00
2018-04-02T12:29:50.938Z,44.00
2018-04-02T12:30:56.185Z,49.00
2018-04-02T12:32:00.828Z,59.00
2018-04-02T12:33:06.147Z,70.00
2018-04-02T12:34:10.834Z,44.50
2018-04-02T12:35:15.646Z,62.50
2018-04-02T12:36:20.546Z,39.00
2018-04-02T12:37:25.294Z,60.50
2018-04-02T12:38:30.016Z,61.00
2018-04-02T12:39:35.274Z,51.50
2018-04-02T12:40:40.016Z,80.50
2018-04-02T12:41:44.715Z,84.00
2018-04-02T12:42:50.246Z,57.50
2018-04-02T12:43:55.975Z,56.50
2018-04-02T12:45:00.818Z,50.00
2018-04-02T12:46:07.188Z,67.50
2018-04-02T12:47:11.868Z,75.50
2018-04-02T12:48:16.543Z,62.50
2018-04-02T12:49:21.411Z,65.00
2018-04-02T12:50:26.073Z,72.50
2018-04-02T12:51:30.798Z,56.50
2018-04-02T12:52:35.818Z,58.00
2018-04-02T12:53:40.802Z,88.50
2018-04-02T12:54:46.512Z,61.00
2018-04-02T12:55:52.317Z,61.50
2018-04-02T12:56:57.217Z,37.50
2018-04-02T12:58:01.981Z,66.00
2018-04-02T12:59:06.598Z,63.00
2018-04-02T13:00:13.731Z,64.50
2018-04-02T13:01:18.682Z,57.00
2018-04-02T13:02:23.387Z,69.50
2018-04-02T13:03:28.280Z,66.00
2018-04-02T13:04:33.503Z,61.50
2018-04-02T13:05:38.234Z,70.00
2018-04-02T13:06:43.524Z,70.50
2018-04-02T13:07:48.955Z,64.50
2018-04-02T13:08:54.642Z,75.50
2018-04-02T13:09:59.256Z,60.00
2018-04-02T13:11:04.267Z,59.00
2018-04-02T13:12:09.249Z,77.50
2018-04-02T13:13:14.012Z,73.00
2018-04-02T13:14:18.800Z,49.00
2018-04-02T13:15:23.610Z,99.50
2018-04-02T13:16:28.235Z,41.50
2018-04-02T13:17:32.846Z,76.00
2018-04-02T13:18:37.614Z,64.50
2018-04-02T13:19:42.811Z,77.00
2018-04-02T13:20:47.608Z,74.50
2018-04-02T13:21:53.105Z,37.00
2018-04-02T13:22:58.872Z,66.50
2018-04-02T13:24:03.937Z,50.00
2018-04-02T13:25:08.649Z,54.50
2018-04-02T13:26:13.399Z,94.00
2018-04-02T13:27:18.100Z,59.50
2018-04-02T13:28:22.854Z,69.50
2018-04-02T13:29:27.547Z,87.00
2018-04-02T13:30:32.848Z,52.50
2018-04-02T13:31:37.657Z,41.00
2018-04-02T13:32:42.814Z,57.50
2018-04-02T13:33:48.107Z,58.50
2018-04-02T13:34:52.937Z,75.50
2018-04-02T13:35:57.558Z,69.50
2018-04-02T13:37:02.525Z,65.00
2018-04-02T13:38:07.235Z,28.50
2018-04-02T13:39:11.939Z,39.50
2018-04-02T13:40:16.561Z,44.50
2018-04-02T13:41:21.504Z,74.50
2018-04-02T13:42:26.442Z,60.50
2018-04-02T13:43:31.806Z,86.50
2018-04-02T13:44:36.514Z,59.50
2018-04-02T13:45:41.819Z,73.50
2018-04-02T13:46:47.755Z,35.00
2018-04-02T13:47:52.729Z,51.50
2018-04-02T13:48:57.570Z,44.50
2018-04-02T13:50:02.611Z,51.00
2018-04-02T13:51:07.282Z,42.00
2018-04-02T13:52:11.937Z,43.50
2018-04-02T13:53:16.709Z,99.00
2018-04-02T13:54:21.685Z,85.50
2018-04-02T13:55:26.711Z,97.00
2018-04-02T13:56:31.764Z,91.00
2018-04-02T13:57:36.707Z,76.00
2018-04-02T13:58:41.527Z,66.50
2018-04-02T13:59:46.090Z,43.00
2018-04-02T14:00:51.765Z,80.00
2018-04-02T14:01:56.593Z,64.00
2018-04-02T14:03:01.317Z,47.00